EDW752X LSZH-LICA
Flight info
| Callsign | EDW752X |
|---|---|
| Flight time | N/A |
| Altitude | 31000 |
| Route | DEGES Z2 OSDOV M738 NATAG DCT LORLO DCT UNTAD/N0451F350 DCT MOGPU DCT EVINO/N0392F190 M620 ARBUM |
| Aircraft | A320/M-SDE3FGHIRWY/LB1 |
Departure
| Time | 2026-05-05 13:16 |
|---|---|
| Airport | Zürich Airport (LSZH) |
Arrival
| Time | N/A |
|---|---|
| Airport | Lamezia Terme Sant'Eufemia International Airport (LICA) |
| Time | Latitude | Longitude | Altitude | Speed | Heading |
|---|---|---|---|---|---|
| 2026-05-05 12:37 | 47.45168 | 8.55936 | 1407 ft | 0 kts | 186° |
| 2026-05-05 13:08 | 47.45169 | 8.55936 | 1407 ft | 2 kts | 186° |
| 2026-05-05 13:09 | 47.45194 | 8.55940 | 1407 ft | 4 kts | 186° |
| 2026-05-05 13:09 | 47.45220 | 8.55947 | 1411 ft | 4 kts | 202° |
| 2026-05-05 13:09 | 47.45241 | 8.55967 | 1410 ft | 4 kts | 239° |
| 2026-05-05 13:09 | 47.45246 | 8.55993 | 1409 ft | 1 kts | 276° |
| 2026-05-05 13:10 | 47.45246 | 8.55998 | 1411 ft | 0 kts | 276° |
| 2026-05-05 13:11 | 47.45247 | 8.55987 | 1410 ft | 7 kts | 276° |
| 2026-05-05 13:11 | 47.45256 | 8.55847 | 1407 ft | 16 kts | 276° |
| 2026-05-05 13:11 | 47.45268 | 8.55679 | 1407 ft | 17 kts | 276° |
| 2026-05-05 13:11 | 47.45325 | 8.55543 | 1410 ft | 18 kts | 335° |
| 2026-05-05 13:12 | 47.45444 | 8.55460 | 1404 ft | 21 kts | 334° |
| 2026-05-05 13:12 | 47.45527 | 8.55470 | 1407 ft | 4 kts | 78° |
| 2026-05-05 13:12 | 47.45521 | 8.55578 | 1407 ft | 22 kts | 97° |
| 2026-05-05 13:12 | 47.45502 | 8.55816 | 1414 ft | 24 kts | 96° |
| 2026-05-05 13:13 | 47.45485 | 8.56064 | 1407 ft | 25 kts | 96° |
| 2026-05-05 13:13 | 47.45516 | 8.56270 | 1410 ft | 17 kts | 45° |
| 2026-05-05 13:13 | 47.45584 | 8.56395 | 1413 ft | 14 kts | 56° |
| 2026-05-05 13:13 | 47.45593 | 8.56519 | 1415 ft | 11 kts | 97° |
| 2026-05-05 13:14 | 47.45579 | 8.56677 | 1418 ft | 20 kts | 98° |
| 2026-05-05 13:14 | 47.45566 | 8.56874 | 1420 ft | 19 kts | 95° |
| 2026-05-05 13:14 | 47.45609 | 8.57019 | 1424 ft | 14 kts | 14° |
| 2026-05-05 13:14 | 47.45667 | 8.56973 | 1424 ft | 6 kts | 267° |
| 2026-05-05 13:15 | 47.45672 | 8.56884 | 1423 ft | 19 kts | 276° |
| 2026-05-05 13:15 | 47.45712 | 8.56298 | 1414 ft | 93 kts | 276° |
| 2026-05-05 13:15 | 47.45803 | 8.55029 | 1396 ft | 152 kts | 276° |
| 2026-05-05 13:15 | 47.45915 | 8.53443 | 1924 ft | 154 kts | 276° |
| 2026-05-05 13:16 | 47.46022 | 8.51861 | 2621 ft | 156 kts | 275° |
| 2026-05-05 13:16 | 47.46123 | 8.50218 | 3088 ft | 169 kts | 275° |
| 2026-05-05 13:16 | 47.46207 | 8.48376 | 3320 ft | 192 kts | 263° |
| 2026-05-05 13:16 | 47.45629 | 8.46506 | 3586 ft | 215 kts | 231° |
| 2026-05-05 13:17 | 47.44331 | 8.45190 | 3935 ft | 244 kts | 198° |
| 2026-05-05 13:17 | 47.42576 | 8.45276 | 4510 ft | 267 kts | 161° |
| 2026-05-05 13:17 | 47.41090 | 8.46974 | 5350 ft | 279 kts | 126° |
| 2026-05-05 13:17 | 47.40471 | 8.49679 | 6270 ft | 286 kts | 92° |
| 2026-05-05 13:18 | 47.40858 | 8.52570 | 7109 ft | 292 kts | 69° |
| 2026-05-05 13:18 | 47.41769 | 8.55278 | 7907 ft | 297 kts | 60° |
| 2026-05-05 13:18 | 47.42823 | 8.57880 | 8689 ft | 302 kts | 59° |
| 2026-05-05 13:18 | 47.43901 | 8.60576 | 9479 ft | 307 kts | 61° |
| 2026-05-05 13:19 | 47.44934 | 8.63375 | 10144 ft | 317 kts | 63° |
| 2026-05-05 13:19 | 47.45845 | 8.66469 | 10385 ft | 340 kts | 74° |
| 2026-05-05 13:19 | 47.46321 | 8.69992 | 10654 ft | 358 kts | 88° |
| 2026-05-05 13:19 | 47.46435 | 8.73699 | 11238 ft | 365 kts | 90° |
| 2026-05-05 13:20 | 47.46548 | 8.77472 | 11963 ft | 369 kts | 90° |
| 2026-05-05 13:20 | 47.46622 | 8.81279 | 12729 ft | 370 kts | 94° |
| 2026-05-05 13:20 | 47.46322 | 8.85055 | 13423 ft | 372 kts | 104° |
| 2026-05-05 13:20 | 47.45769 | 8.88817 | 14061 ft | 376 kts | 104° |
| 2026-05-05 13:21 | 47.45212 | 8.92600 | 14738 ft | 377 kts | 104° |
| 2026-05-05 13:21 | 47.44662 | 8.96398 | 15390 ft | 380 kts | 104° |
| 2026-05-05 13:21 | 47.44107 | 9.00231 | 16040 ft | 381 kts | 106° |
| 2026-05-05 13:21 | 47.43300 | 9.03950 | 16667 ft | 382 kts | 112° |
| 2026-05-05 13:22 | 47.42407 | 9.07670 | 17308 ft | 384 kts | 112° |
| 2026-05-05 13:22 | 47.41494 | 9.11386 | 17947 ft | 387 kts | 112° |
| 2026-05-05 13:22 | 47.40565 | 9.15131 | 18534 ft | 390 kts | 113° |
| 2026-05-05 13:22 | 47.39626 | 9.18903 | 19116 ft | 393 kts | 113° |
| 2026-05-05 13:23 | 47.38680 | 9.22706 | 19729 ft | 395 kts | 113° |
| 2026-05-05 13:23 | 47.37735 | 9.26529 | 20295 ft | 398 kts | 113° |